Nicole Leigh Reinauer — WCZ5696 — position and weather

sailwx.info

Track history (hours):
 
Tides and Currents Weather Stations Pressure Air Temp Water Temp Dewpoint Dewpoint Depression Visibility Wind Speed Wind Dir Waves Ship Positions

Nicole Leigh Reinauer

Owner: H A REINAUER INC, STATEN ISLAND, NY. More information available from US FCC via Universal Licensing System and Coast Guard Vessel Documentation Center.

Last reported at 2018-Jun-21 15:55 UTC. Time now 2018-Jun-23 09:47 UTC.
Position N 40°51' W 073°57'.

Length 167 m; draft 6.4 m.

Type: Tanker. MMSI: 366774330.

Date/timePositionNaut miles runAvg speedWind from/ knotsBaromVisibWave heightAir tempDewpointWater temp
2018-Jun-21 15:55N 40°51' W 073°57'4 9.1
2018-Jun-21 15:28N 40°47' W 073°59'4 8.7
2018-Jun-21 15:00N 40°44' W 074°01'5 9.2
2018-Jun-21 14:30N 40°39' W 074°03'4 7.4
2018-Jun-21 14:00N 40°39' W 074°08'3 6.2
2018-Jun-21 13:30N 40°38' W 074°12'2 0.1
2018-Jun-20 15:37N 40°36' W 074°12'1 9.0
2018-Jun-20 15:28N 40°38' W 074°12'3 2.7
2018-Jun-20 14:12N 40°38' W 074°08'0 0.4
2018-Jun-20 14:00N 40°39' W 074°08'5 0.3
2018-Jun-19 23:17N 40°35' W 074°12'1 2.9
2018-Jun-19 22:59N 40°36' W 074°12'4 7.5
2018-Jun-19 22:30N 40°39' W 074°08'5 9.5
2018-Jun-19 22:00N 40°40' W 074°03'612.1
2018-Jun-19 21:31N 40°46' W 074°00'  
2018-Jun-17 12:24N 40°51' W 073°57'4 9.5
2018-Jun-17 11:59N 40°47' W 073°59'5 9.3
2018-Jun-17 11:30N 40°43' W 074°01'5 9.2
2018-Jun-17 11:01N 40°39' W 074°04'4 8.7
2018-Jun-17 10:31N 40°39' W 074°09'3 5.9
2018-Jun-17 10:00N 40°37' W 074°12'0 0.0
2018-Jun-16 06:38N 40°36' W 074°12'111.5
2018-Jun-16 06:30N 40°38' W 074°12'3 4.6
2018-Jun-16 05:46N 40°38' W 074°08'0 0.0
2018-Jun-16 05:16N 40°38' W 074°08'0 0.0
2018-Jun-16 04:40N 40°38' W 074°08'0 0.0
2018-Jun-16 04:22N 40°38' W 074°08'2 5.8
2018-Jun-16 04:00N 40°39' W 074°10'3 1.9
2018-Jun-16 02:10N 40°36' W 074°12'1 4.7
2018-Jun-16 02:00N 40°36' W 074°12'3 5.9
2018-Jun-16 01:30N 40°39' W 074°10'510.6
2018-Jun-16 01:00N 40°39' W 074°03'1 1.1
2018-Jun-16 00:28N 40°40' W 074°03'0 0.2
2018-Jun-15 23:58N 40°40' W 074°03'0 0.3
2018-Jun-15 23:28N 40°40' W 074°03'0 0.1
2018-Jun-15 22:58N 40°40' W 074°03'0 0.0
2018-Jun-15 22:28N 40°40' W 074°03'0 0.0
2018-Jun-15 21:58N 40°40' W 074°03'0 0.0
2018-Jun-15 21:28N 40°40' W 074°03'0 0.0
2018-Jun-15 21:00N 40°40' W 074°03'0 0.0
2018-Jun-15 20:31N 40°40' W 074°03'0 0.0
2018-Jun-15 20:00N 40°40' W 074°03'0 0.0
2018-Jun-15 19:30N 40°40' W 074°03'0 0.0
2018-Jun-15 19:00N 40°40' W 074°03'0 0.0
2018-Jun-15 18:31N 40°40' W 074°03'2 4.3
2018-Jun-15 18:00N 40°41' W 074°01'612.3
2018-Jun-15 17:30N 40°46' W 073°56'4 6.6
2018-Jun-15 16:58N 40°48' W 073°52'5311.6
2018-Jun-15 12:22N 41°06' W 072°46'411.6
2018-Jun-15 12:00N 41°07' W 072°40'611.3
2018-Jun-15 11:30N 41°08' W 072°33'611.0
2018-Jun-15 11:00N 41°10' W 072°26'5 9.8
2018-Jun-15 10:30N 41°11' W 072°20'4 8.6
2018-Jun-15 10:00N 41°13' W 072°14'4 8.3
2018-Jun-15 09:30N 41°14' W 072°09'92 8.8
2018-Jun-14 23:03N 42°10' W 070°31'011.5
2018-Jun-14 23:00N 42°11' W 070°32'611.2
2018-Jun-14 22:31N 42°15' W 070°37'611.1
2018-Jun-14 22:01N 42°18' W 070°42'611.4
2018-Jun-14 21:31N 42°22' W 070°49'510.2
2018-Jun-14 21:00N 42°22' W 070°55'5 9.8
2018-Jun-14 20:30N 42°21' W 071°02'2 3.9
2018-Jun-14 20:00N 42°23' W 071°01'0 0.0
2018-Jun-14 19:30N 42°23' W 071°01'0 0.0
2018-Jun-14 19:00N 42°23' W 071°01'0 0.0
2018-Jun-14 18:30N 42°23' W 071°01'0 0.0
2018-Jun-14 18:00N 42°23' W 071°01'0 0.0
2018-Jun-14 17:30N 42°23' W 071°01'0 0.0
2018-Jun-14 16:57N 42°23' W 071°01'0 0.0
2018-Jun-14 16:30N 42°23' W 071°01'0 0.0
2018-Jun-14 16:00N 42°23' W 071°01'0 0.0
2018-Jun-14 15:30N 42°23' W 071°01'0 0.0
2018-Jun-14 15:00N 42°23' W 071°01'0 0.0
2018-Jun-14 14:30N 42°23' W 071°01'0 0.0
2018-Jun-14 13:57N 42°23' W 071°01'0 0.0
2018-Jun-14 13:30N 42°23' W 071°01'0 0.0
2018-Jun-14 13:00N 42°23' W 071°01'0 0.0
2018-Jun-14 12:30N 42°23' W 071°01'0 0.0
2018-Jun-14 12:00N 42°23' W 071°01'0 0.0
2018-Jun-14 11:30N 42°23' W 071°01'0 0.0
2018-Jun-14 11:01N 42°23' W 071°01'1 1.1
2018-Jun-14 10:29N 42°24' W 071°01'0 0.0
2018-Jun-14 09:59N 42°24' W 071°01'0 0.0
2018-Jun-14 09:29N 42°24' W 071°01'0 0.0
2018-Jun-14 08:59N 42°24' W 071°01'0 0.0
2018-Jun-14 08:26N 42°24' W 071°01'0 0.0
2018-Jun-14 07:59N 42°24' W 071°01'0 0.0
2018-Jun-14 07:26N 42°24' W 071°01'0 0.0
2018-Jun-14 06:59N 42°24' W 071°01'0 0.0
2018-Jun-14 06:29N 42°24' W 071°01'0 0.0
2018-Jun-14 05:50N 42°24' W 071°01'0 0.0
2018-Jun-14 05:29N 42°24' W 071°01'0 0.0
2018-Jun-14 04:59N 42°24' W 071°01'0 0.0
2018-Jun-14 04:29N 42°24' W 071°01'0 0.0
2018-Jun-14 03:59N 42°24' W 071°01'0 0.0
2018-Jun-14 03:29N 42°24' W 071°01'0 0.0
2018-Jun-14 02:59N 42°24' W 071°01'0 0.0
2018-Jun-14 02:29N 42°24' W 071°01'0 0.0
2018-Jun-14 01:59N 42°24' W 071°01'0 0.0
2018-Jun-14 01:29N 42°24' W 071°01'0 0.0
2018-Jun-14 00:59N 42°24' W 071°01'0 0.0
2018-Jun-14 00:23N 42°24' W 071°01'0 0.0
2018-Jun-13 23:59N 42°24' W 071°01'0 0.0
2018-Jun-13 23:29N 42°24' W 071°01'0 0.0
2018-Jun-13 22:50N 42°24' W 071°01'0 0.0
2018-Jun-13 22:29N 42°24' W 071°01'0 0.0
2018-Jun-13 21:53N 42°24' W 071°01'0 0.0
2018-Jun-13 21:23N 42°24' W 071°01'0 0.0
2018-Jun-13 20:53N 42°24' W 071°01'0 0.0
2018-Jun-13 20:29N 42°24' W 071°01'0 0.0
2018-Jun-13 19:59N 42°24' W 071°01'0 0.6
2018-Jun-13 19:29N 42°24' W 071°01'0 0.0
2018-Jun-13 18:59N 42°24' W 071°01'0 0.0
2018-Jun-13 18:29N 42°24' W 071°01'0 0.0
2018-Jun-13 17:59N 42°24' W 071°01'0 0.0
2018-Jun-13 17:29N 42°24' W 071°01'0 0.0
2018-Jun-13 16:56N 42°24' W 071°01'0 0.0
2018-Jun-13 16:26N 42°24' W 071°01'0 0.0
2018-Jun-13 15:56N 42°24' W 071°01'0 0.0
2018-Jun-13 15:29N 42°24' W 071°01'0 0.0
2018-Jun-13 14:59N 42°24' W 071°01'0 0.0
2018-Jun-13 14:29N 42°24' W 071°01'0 0.0
2018-Jun-13 13:50N 42°24' W 071°01'0 0.0
2018-Jun-13 13:29N 42°24' W 071°01'0 0.0
2018-Jun-13 12:59N 42°24' W 071°01'0 0.0
2018-Jun-13 12:29N 42°24' W 071°01'0 0.0
2018-Jun-13 11:59N 42°24' W 071°01'0 0.0
2018-Jun-13 11:23N 42°24' W 071°01'0 0.0
2018-Jun-13 10:59N 42°24' W 071°01'0 0.0
2018-Jun-13 10:29N 42°24' W 071°01'0 0.0
2018-Jun-13 09:59N 42°24' W 071°01'0 0.0
2018-Jun-13 09:29N 42°24' W 071°01'0 0.0
2018-Jun-13 08:53N 42°24' W 071°01'0 0.0
2018-Jun-13 08:23N 42°24' W 071°01'0 0.0
2018-Jun-13 07:59N 42°24' W 071°01'0 0.0
2018-Jun-13 07:29N 42°24' W 071°01'0 0.0
2018-Jun-13 06:59N 42°24' W 071°01'0 0.0
2018-Jun-13 06:29N 42°24' W 071°01'0 0.0
2018-Jun-13 05:59N 42°24' W 071°01'0 0.0
2018-Jun-13 05:29N 42°24' W 071°01'0 0.0
2018-Jun-13 04:59N 42°24' W 071°01'0 0.0
2018-Jun-13 04:26N 42°24' W 071°01'0 0.0
2018-Jun-13 03:56N 42°24' W 071°01'0 0.0
2018-Jun-13 03:29N 42°24' W 071°01'0 0.0
2018-Jun-13 02:59N 42°24' W 071°01'0 0.0
2018-Jun-13 02:29N 42°24' W 071°01'0 0.0
2018-Jun-13 01:59N 42°24' W 071°01'0 0.0
2018-Jun-13 01:29N 42°24' W 071°01'0 0.0
2018-Jun-13 00:56N 42°24' W 071°01'0 0.0
2018-Jun-13 00:29N 42°24' W 071°01'0 0.0
2018-Jun-12 23:59N 42°24' W 071°01'0 0.0
2018-Jun-12 23:29N 42°24' W 071°01'0 0.0
2018-Jun-12 22:59N 42°24' W 071°01'0 0.0
2018-Jun-12 22:29N 42°24' W 071°01'0 0.0
2018-Jun-12 21:59N 42°24' W 071°01'0 0.0
2018-Jun-12 21:29N 42°24' W 071°01'0 0.0
2018-Jun-12 20:59N 42°24' W 071°01'0 0.0
2018-Jun-12 20:29N 42°24' W 071°01'0 0.0
2018-Jun-12 19:59N 42°24' W 071°01'0 0.0
2018-Jun-12 19:23N 42°24' W 071°01'0 0.0
2018-Jun-12 18:56N 42°24' W 071°01'1 1.4
2018-Jun-12 18:30N 42°23' W 071°01'1 3.0
2018-Jun-12 18:00N 42°22' W 071°03'4 8.0
2018-Jun-12 17:30N 42°20' W 070°58'5 9.7
2018-Jun-12 17:01N 42°23' W 070°53'510.3
2018-Jun-12 16:30N 42°21' W 070°47'611.4
2018-Jun-12 16:00N 42°17' W 070°40'611.3
2018-Jun-12 15:30N 42°13' W 070°35'510.6
2018-Jun-12 15:00N 42°09' W 070°31'35 9.2
2018-Jun-12 11:11N 41°35' W 070°43'2 9.3
2018-Jun-12 10:59N 41°34' W 070°45'510.1
2018-Jun-12 10:29N 41°30' W 070°50'510.5
2018-Jun-12 10:00N 41°28' W 070°56'510.4
2018-Jun-12 09:30N 41°26' W 071°02'510.2
2018-Jun-12 09:00N 41°21' W 071°06'510.0
2018-Jun-12 08:30N 41°17' W 071°10'5 9.9
2018-Jun-12 07:59N 41°13' W 071°14'510.0
2018-Jun-12 07:30N 41°10' W 071°18'510.1
2018-Jun-12 07:00N 41°08' W 071°24'5 9.9
2018-Jun-12 06:30N 41°05' W 071°30'5 9.7
2018-Jun-12 06:00N 41°03' W 071°36'510.1
2018-Jun-12 05:30N 41°01' W 071°42'15 9.3
2018-Jun-12 03:57N 40°55' W 071°60'5 9.3
2018-Jun-12 03:23N 40°53' W 072°06'4 9.4
2018-Jun-12 02:59N 40°52' W 072°11'86 9.2
2018-Jun-11 17:34N 40°36' W 074°03'112.7
2018-Jun-11 17:30N 40°37' W 074°03'4 7.8
2018-Jun-11 17:00N 40°39' W 074°08'  
Track history (hours):
 
Tides and Currents Weather Stations Pressure Air Temp Water Temp Dewpoint Dewpoint Depression Visibility Wind Speed Wind Dir Waves Ship Positions

Nicole Leigh Reinauer

Owner: H A REINAUER INC, STATEN ISLAND, NY. More information available from US FCC via Universal Licensing System and Coast Guard Vessel Documentation Center.

Last reported at 2018-Jun-21 15:55 UTC. Time now 2018-Jun-23 09:47 UTC.
Position N 40°51' W 073°57'.

Length 167 m; draft 6.4 m.

Type: Tanker. MMSI: 366774330.

Date/timePositionNaut miles runAvg speedWind from/ knotsBaromVisibWave heightAir tempDewpointWater temp
2018-Jun-21 15:55N 40°51' W 073°57'4 9.1
2018-Jun-21 15:28N 40°47' W 073°59'4 8.7
2018-Jun-21 15:00N 40°44' W 074°01'5 9.2
2018-Jun-21 14:30N 40°39' W 074°03'4 7.4
2018-Jun-21 14:00N 40°39' W 074°08'3 6.2
2018-Jun-21 13:30N 40°38' W 074°12'2 0.1
2018-Jun-20 15:37N 40°36' W 074°12'1 9.0
2018-Jun-20 15:28N 40°38' W 074°12'3 2.7
2018-Jun-20 14:12N 40°38' W 074°08'0 0.4
2018-Jun-20 14:00N 40°39' W 074°08'5 0.3
2018-Jun-19 23:17N 40°35' W 074°12'1 2.9
2018-Jun-19 22:59N 40°36' W 074°12'4 7.5
2018-Jun-19 22:30N 40°39' W 074°08'5 9.5
2018-Jun-19 22:00N 40°40' W 074°03'612.1
2018-Jun-19 21:31N 40°46' W 074°00'  
2018-Jun-17 12:24N 40°51' W 073°57'4 9.5
2018-Jun-17 11:59N 40°47' W 073°59'5 9.3
2018-Jun-17 11:30N 40°43' W 074°01'5 9.2
2018-Jun-17 11:01N 40°39' W 074°04'4 8.7
2018-Jun-17 10:31N 40°39' W 074°09'3 5.9
2018-Jun-17 10:00N 40°37' W 074°12'0 0.0
2018-Jun-16 06:38N 40°36' W 074°12'111.5
2018-Jun-16 06:30N 40°38' W 074°12'3 4.6
2018-Jun-16 05:46N 40°38' W 074°08'0 0.0
2018-Jun-16 05:16N 40°38' W 074°08'0 0.0
2018-Jun-16 04:40N 40°38' W 074°08'0 0.0
2018-Jun-16 04:22N 40°38' W 074°08'2 5.8
2018-Jun-16 04:00N 40°39' W 074°10'3 1.9
2018-Jun-16 02:10N 40°36' W 074°12'1 4.7
2018-Jun-16 02:00N 40°36' W 074°12'3 5.9
2018-Jun-16 01:30N 40°39' W 074°10'510.6
2018-Jun-16 01:00N 40°39' W 074°03'1 1.1
2018-Jun-16 00:28N 40°40' W 074°03'0 0.2
2018-Jun-15 23:58N 40°40' W 074°03'0 0.3
2018-Jun-15 23:28N 40°40' W 074°03'0 0.1
2018-Jun-15 22:58N 40°40' W 074°03'0 0.0
2018-Jun-15 22:28N 40°40' W 074°03'0 0.0
2018-Jun-15 21:58N 40°40' W 074°03'0 0.0
2018-Jun-15 21:28N 40°40' W 074°03'0 0.0
2018-Jun-15 21:00N 40°40' W 074°03'0 0.0
2018-Jun-15 20:31N 40°40' W 074°03'0 0.0
2018-Jun-15 20:00N 40°40' W 074°03'0 0.0
2018-Jun-15 19:30N 40°40' W 074°03'0 0.0
2018-Jun-15 19:00N 40°40' W 074°03'0 0.0
2018-Jun-15 18:31N 40°40' W 074°03'2 4.3
2018-Jun-15 18:00N 40°41' W 074°01'612.3
2018-Jun-15 17:30N 40°46' W 073°56'4 6.6
2018-Jun-15 16:58N 40°48' W 073°52'5311.6
2018-Jun-15 12:22N 41°06' W 072°46'411.6
2018-Jun-15 12:00N 41°07' W 072°40'611.3
2018-Jun-15 11:30N 41°08' W 072°33'611.0
2018-Jun-15 11:00N 41°10' W 072°26'5 9.8
2018-Jun-15 10:30N 41°11' W 072°20'4 8.6
2018-Jun-15 10:00N 41°13' W 072°14'4 8.3
2018-Jun-15 09:30N 41°14' W 072°09'92 8.8
2018-Jun-14 23:03N 42°10' W 070°31'011.5
2018-Jun-14 23:00N 42°11' W 070°32'611.2
2018-Jun-14 22:31N 42°15' W 070°37'611.1
2018-Jun-14 22:01N 42°18' W 070°42'611.4
2018-Jun-14 21:31N 42°22' W 070°49'510.2
2018-Jun-14 21:00N 42°22' W 070°55'5 9.8
2018-Jun-14 20:30N 42°21' W 071°02'2 3.9
2018-Jun-14 20:00N 42°23' W 071°01'0 0.0
2018-Jun-14 19:30N 42°23' W 071°01'0 0.0
2018-Jun-14 19:00N 42°23' W 071°01'0 0.0
2018-Jun-14 18:30N 42°23' W 071°01'0 0.0
2018-Jun-14 18:00N 42°23' W 071°01'0 0.0
2018-Jun-14 17:30N 42°23' W 071°01'0 0.0
2018-Jun-14 16:57N 42°23' W 071°01'0 0.0
2018-Jun-14 16:30N 42°23' W 071°01'0 0.0
2018-Jun-14 16:00N 42°23' W 071°01'0 0.0
2018-Jun-14 15:30N 42°23' W 071°01'0 0.0
2018-Jun-14 15:00N 42°23' W 071°01'0 0.0
2018-Jun-14 14:30N 42°23' W 071°01'0 0.0
2018-Jun-14 13:57N 42°23' W 071°01'0 0.0
2018-Jun-14 13:30N 42°23' W 071°01'0 0.0
2018-Jun-14 13:00N 42°23' W 071°01'0 0.0
2018-Jun-14 12:30N 42°23' W 071°01'0 0.0
2018-Jun-14 12:00N 42°23' W 071°01'0 0.0
2018-Jun-14 11:30N 42°23' W 071°01'0 0.0
2018-Jun-14 11:01N 42°23' W 071°01'1 1.1
2018-Jun-14 10:29N 42°24' W 071°01'0 0.0
2018-Jun-14 09:59N 42°24' W 071°01'0 0.0
2018-Jun-14 09:29N 42°24' W 071°01'0 0.0
2018-Jun-14 08:59N 42°24' W 071°01'0 0.0
2018-Jun-14 08:26N 42°24' W 071°01'0 0.0
2018-Jun-14 07:59N 42°24' W 071°01'0 0.0
2018-Jun-14 07:26N 42°24' W 071°01'0 0.0
2018-Jun-14 06:59N 42°24' W 071°01'0 0.0
2018-Jun-14 06:29N 42°24' W 071°01'0 0.0
2018-Jun-14 05:50N 42°24' W 071°01'0 0.0
2018-Jun-14 05:29N 42°24' W 071°01'0 0.0
2018-Jun-14 04:59N 42°24' W 071°01'0 0.0
2018-Jun-14 04:29N 42°24' W 071°01'0 0.0
2018-Jun-14 03:59N 42°24' W 071°01'0 0.0
2018-Jun-14 03:29N 42°24' W 071°01'0 0.0
2018-Jun-14 02:59N 42°24' W 071°01'0 0.0
2018-Jun-14 02:29N 42°24' W 071°01'0 0.0
2018-Jun-14 01:59N 42°24' W 071°01'0 0.0
2018-Jun-14 01:29N 42°24' W 071°01'0 0.0
2018-Jun-14 00:59N 42°24' W 071°01'0 0.0
2018-Jun-14 00:23N 42°24' W 071°01'0 0.0
2018-Jun-13 23:59N 42°24' W 071°01'0 0.0
2018-Jun-13 23:29N 42°24' W 071°01'0 0.0
2018-Jun-13 22:50N 42°24' W 071°01'0 0.0
2018-Jun-13 22:29N 42°24' W 071°01'0 0.0
2018-Jun-13 21:53N 42°24' W 071°01'0 0.0
2018-Jun-13 21:23N 42°24' W 071°01'0 0.0
2018-Jun-13 20:53N 42°24' W 071°01'0 0.0
2018-Jun-13 20:29N 42°24' W 071°01'0 0.0
2018-Jun-13 19:59N 42°24' W 071°01'0 0.6
2018-Jun-13 19:29N 42°24' W 071°01'0 0.0
2018-Jun-13 18:59N 42°24' W 071°01'0 0.0
2018-Jun-13 18:29N 42°24' W 071°01'0 0.0
2018-Jun-13 17:59N 42°24' W 071°01'0 0.0
2018-Jun-13 17:29N 42°24' W 071°01'0 0.0
2018-Jun-13 16:56N 42°24' W 071°01'0 0.0
2018-Jun-13 16:26N 42°24' W 071°01'0 0.0
2018-Jun-13 15:56N 42°24' W 071°01'0 0.0
2018-Jun-13 15:29N 42°24' W 071°01'0 0.0
2018-Jun-13 14:59N 42°24' W 071°01'0 0.0
2018-Jun-13 14:29N 42°24' W 071°01'0 0.0
2018-Jun-13 13:50N 42°24' W 071°01'0 0.0
2018-Jun-13 13:29N 42°24' W 071°01'0 0.0
2018-Jun-13 12:59N 42°24' W 071°01'0 0.0
2018-Jun-13 12:29N 42°24' W 071°01'0 0.0
2018-Jun-13 11:59N 42°24' W 071°01'0 0.0
2018-Jun-13 11:23N 42°24' W 071°01'0 0.0
2018-Jun-13 10:59N 42°24' W 071°01'0 0.0
2018-Jun-13 10:29N 42°24' W 071°01'0 0.0
2018-Jun-13 09:59N 42°24' W 071°01'0 0.0
2018-Jun-13 09:29N 42°24' W 071°01'0 0.0
2018-Jun-13 08:53N 42°24' W 071°01'0 0.0
2018-Jun-13 08:23N 42°24' W 071°01'0 0.0
2018-Jun-13 07:59N 42°24' W 071°01'0 0.0
2018-Jun-13 07:29N 42°24' W 071°01'0 0.0
2018-Jun-13 06:59N 42°24' W 071°01'0 0.0
2018-Jun-13 06:29N 42°24' W 071°01'0 0.0
2018-Jun-13 05:59N 42°24' W 071°01'0 0.0
2018-Jun-13 05:29N 42°24' W 071°01'0 0.0
2018-Jun-13 04:59N 42°24' W 071°01'0 0.0
2018-Jun-13 04:26N 42°24' W 071°01'0 0.0
2018-Jun-13 03:56N 42°24' W 071°01'0 0.0
2018-Jun-13 03:29N 42°24' W 071°01'0 0.0
2018-Jun-13 02:59N 42°24' W 071°01'0 0.0
2018-Jun-13 02:29N 42°24' W 071°01'0 0.0
2018-Jun-13 01:59N 42°24' W 071°01'0 0.0
2018-Jun-13 01:29N 42°24' W 071°01'0 0.0
2018-Jun-13 00:56N 42°24' W 071°01'0 0.0
2018-Jun-13 00:29N 42°24' W 071°01'0 0.0
2018-Jun-12 23:59N 42°24' W 071°01'0 0.0
2018-Jun-12 23:29N 42°24' W 071°01'0 0.0
2018-Jun-12 22:59N 42°24' W 071°01'0 0.0
2018-Jun-12 22:29N 42°24' W 071°01'0 0.0
2018-Jun-12 21:59N 42°24' W 071°01'0 0.0
2018-Jun-12 21:29N 42°24' W 071°01'0 0.0
2018-Jun-12 20:59N 42°24' W 071°01'0 0.0
2018-Jun-12 20:29N 42°24' W 071°01'0 0.0
2018-Jun-12 19:59N 42°24' W 071°01'0 0.0
2018-Jun-12 19:23N 42°24' W 071°01'0 0.0
2018-Jun-12 18:56N 42°24' W 071°01'1 1.4
2018-Jun-12 18:30N 42°23' W 071°01'1 3.0
2018-Jun-12 18:00N 42°22' W 071°03'4 8.0
2018-Jun-12 17:30N 42°20' W 070°58'5 9.7
2018-Jun-12 17:01N 42°23' W 070°53'510.3
2018-Jun-12 16:30N 42°21' W 070°47'611.4
2018-Jun-12 16:00N 42°17' W 070°40'611.3
2018-Jun-12 15:30N 42°13' W 070°35'510.6
2018-Jun-12 15:00N 42°09' W 070°31'35 9.2
2018-Jun-12 11:11N 41°35' W 070°43'2 9.3
2018-Jun-12 10:59N 41°34' W 070°45'510.1
2018-Jun-12 10:29N 41°30' W 070°50'510.5
2018-Jun-12 10:00N 41°28' W 070°56'510.4
2018-Jun-12 09:30N 41°26' W 071°02'510.2
2018-Jun-12 09:00N 41°21' W 071°06'510.0
2018-Jun-12 08:30N 41°17' W 071°10'5 9.9
2018-Jun-12 07:59N 41°13' W 071°14'510.0
2018-Jun-12 07:30N 41°10' W 071°18'510.1
2018-Jun-12 07:00N 41°08' W 071°24'5 9.9
2018-Jun-12 06:30N 41°05' W 071°30'5 9.7
2018-Jun-12 06:00N 41°03' W 071°36'510.1
2018-Jun-12 05:30N 41°01' W 071°42'15 9.3
2018-Jun-12 03:57N 40°55' W 071°60'5 9.3
2018-Jun-12 03:23N 40°53' W 072°06'4 9.4
2018-Jun-12 02:59N 40°52' W 072°11'86 9.2
2018-Jun-11 17:34N 40°36' W 074°03'112.7
2018-Jun-11 17:30N 40°37' W 074°03'4 7.8
2018-Jun-11 17:00N 40°39' W 074°08'  

Dump ship's entire track history